»·PEaware :: CGVZB KSAC-KSNA

CGVZB :: KSAC-KSNA

FLIGHT INFORMATION

Flight Status: Arrived
Operator: Unknown
More flights by this operator :: More flights under this callsign
Pilot: Alan S. (10569)
Aircraft: GULFSTREAM 690 COMMANDER 840/900
(AC90)
More flights by this aircraft type
Origin: KSAC Sacramento Executive
United States
Destination: KSNA John Wayne-Orange Co
United States
More flights between these airports :: More routes between these airports
Route: +SAC V23 EHF LHS V459 SLI
File this flight plan on PilotEdge
Remarks:
Altitude:
(Current/Filed)
24,000ft
Speed:
(Current/Filed)
287kts
Departed: 23-Jun-18 05:57 PM
Arrived: 23-Jun-18 07:32 PM
Distance/Time
Traveled:
339nm/1:35
Distance/Time
To Go:
Arrived

Flight Plot

Page will automatically refresh every two minutes.

Flight plan parsing failed; only flown route is shown


Map Options




Map Legend


Flown Route
Filed Route
Departure Airport
Arrival Airport
Navaid (VOR, NDB)
Fix

Horizontal Profiles

Position Reports

Time Latitude Longitude Heading Altitude Ground
Speed
23-Jun-18 16:50 38.514784 -121.498374 226 22ft 0kts
23-Jun-18 16:51 38.514784 -121.498374 226 22ft 0kts
23-Jun-18 16:52 38.514784 -121.498374 226 22ft 0kts
23-Jun-18 16:53 38.514784 -121.498374 226 22ft 0kts
23-Jun-18 16:54 38.514784 -121.498374 226 22ft 0kts
23-Jun-18 16:55 38.514784 -121.498374 226 22ft 0kts
23-Jun-18 16:56 38.514784 -121.498374 226 22ft 0kts
23-Jun-18 16:57 38.514784 -121.498374 226 22ft 0kts
23-Jun-18 16:58 38.514784 -121.498374 226 22ft 0kts
23-Jun-18 16:59 38.514784 -121.498374 226 22ft 0kts
23-Jun-18 17:00 38.514784 -121.498374 226 22ft 0kts
23-Jun-18 17:01 38.514784 -121.498374 226 22ft 0kts
23-Jun-18 17:02 38.514784 -121.498374 226 22ft 0kts
23-Jun-18 17:03 38.514784 -121.498374 226 22ft 0kts
23-Jun-18 17:04 38.514784 -121.498374 226 22ft 0kts
23-Jun-18 17:05 38.514784 -121.498374 226 22ft 0kts
23-Jun-18 17:06 38.514784 -121.498374 226 22ft 0kts
23-Jun-18 17:07 38.514784 -121.498374 226 22ft 0kts
23-Jun-18 17:08 38.514784 -121.498374 226 22ft 0kts
23-Jun-18 17:09 38.514784 -121.498374 226 22ft 0kts
23-Jun-18 17:10 38.514784 -121.498374 226 22ft 0kts
23-Jun-18 17:11 38.514784 -121.498374 226 22ft 0kts
23-Jun-18 17:12 38.514784 -121.498374 226 22ft 0kts
23-Jun-18 17:13 38.514784 -121.498374 226 22ft 0kts
23-Jun-18 17:14 38.514784 -121.498374 226 22ft 0kts
23-Jun-18 17:15 38.514784 -121.498374 226 22ft 0kts
23-Jun-18 17:16 38.514784 -121.498374 226 22ft 0kts
23-Jun-18 17:17 38.514784 -121.498374 226 22ft 0kts
23-Jun-18 17:18 38.514784 -121.498374 226 22ft 0kts
23-Jun-18 17:19 38.514784 -121.498374 226 22ft 0kts
23-Jun-18 17:20 38.514784 -121.498374 226 22ft 0kts
23-Jun-18 17:21 38.514784 -121.498374 226 22ft 0kts
23-Jun-18 17:22 38.514784 -121.498374 226 22ft 0kts
23-Jun-18 17:23 38.514784 -121.498374 226 22ft 0kts
23-Jun-18 17:24 38.514784 -121.498374 226 22ft 0kts
23-Jun-18 17:25 38.514784 -121.498374 226 22ft 0kts
23-Jun-18 17:26 38.514784 -121.498374 226 22ft 0kts
23-Jun-18 17:27 38.514784 -121.498374 226 22ft 0kts
23-Jun-18 17:28 38.514784 -121.498374 226 22ft 0kts
23-Jun-18 17:29 38.514784 -121.498374 226 22ft 0kts
23-Jun-18 17:30 38.514784 -121.498374 226 22ft 0kts
23-Jun-18 17:31 38.514784 -121.498374 226 22ft 0kts
23-Jun-18 17:32 38.514784 -121.498374 226 22ft 0kts
23-Jun-18 17:33 38.514784 -121.498374 226 22ft 0kts
23-Jun-18 17:34 38.514784 -121.498374 226 22ft 0kts
23-Jun-18 17:35 38.514784 -121.498374 226 22ft 0kts
23-Jun-18 17:36 38.514784 -121.498374 226 22ft 0kts
23-Jun-18 17:37 38.514784 -121.498374 226 22ft 0kts
23-Jun-18 17:38 38.514784 -121.498374 226 22ft 0kts
23-Jun-18 17:39 38.514784 -121.498374 226 22ft 0kts
23-Jun-18 17:40 38.514784 -121.498374 226 22ft 0kts
23-Jun-18 17:41 38.514784 -121.498374 226 22ft 0kts
23-Jun-18 17:42 38.514784 -121.498374 227 22ft 0kts
23-Jun-18 17:43 38.514784 -121.498374 227 22ft 0kts
23-Jun-18 17:44 38.514784 -121.498374 227 22ft 0kts
23-Jun-18 17:45 38.514784 -121.498374 227 22ft 0kts
23-Jun-18 17:46 38.514784 -121.498374 227 22ft 0kts
23-Jun-18 17:47 38.514784 -121.498374 227 22ft 0kts
23-Jun-18 17:48 38.514784 -121.498374 227 22ft 0kts
23-Jun-18 17:49 38.514784 -121.498374 227 22ft 0kts
23-Jun-18 17:50 38.514670 -121.498456 189 22ft 9kts
23-Jun-18 17:51 38.513393 -121.496110 96 22ft 8kts
23-Jun-18 17:52 38.513519 -121.493803 93 22ft 22kts
23-Jun-18 17:53 38.511001 -121.487588 117 22ft 8kts
23-Jun-18 17:54 38.510660 -121.485986 41 22ft 0kts
23-Jun-18 17:55 38.510660 -121.485986 41 22ft 0kts
23-Jun-18 17:56 38.510970 -121.485616 43 22ft 8kts
23-Jun-18 17:57 38.521744 -121.499659 308 637ft 121kts
23-Jun-18 17:58 38.522558 -121.552637 269 1985ft 169kts
23-Jun-18 17:59 38.503994 -121.603960 215 3531ft 176kts
23-Jun-18 18:00 38.463071 -121.584476 127 5660ft 181kts
23-Jun-18 18:01 38.432776 -121.534942 125 8043ft 172kts
23-Jun-18 18:02 38.401054 -121.488645 126 10314ft 175kts
23-Jun-18 18:03 38.369673 -121.440888 127 12557ft 179kts
23-Jun-18 18:04 38.336862 -121.391927 127 14663ft 187kts
23-Jun-18 18:05 38.302560 -121.340669 126 16689ft 195kts
23-Jun-18 18:06 38.266734 -121.287365 127 18528ft 203kts
23-Jun-18 18:07 38.229336 -121.231902 127 20178ft 211kts
23-Jun-18 18:08 38.190583 -121.174466 127 21783ft 218kts
23-Jun-18 18:09 38.150201 -121.115077 127 23021ft 234kts
23-Jun-18 18:10 38.110218 -121.056065 127 22992ft 256kts
23-Jun-18 18:11 38.060686 -120.989497 138 22979ft 269kts
23-Jun-18 18:12 38.001839 -120.929400 138 22981ft 274kts
23-Jun-18 18:13 37.949564 -120.876301 138 22983ft 276kts
23-Jun-18 18:14 37.890350 -120.816255 138 22798ft 284kts
23-Jun-18 18:15 37.829733 -120.754906 138 22759ft 280kts
23-Jun-18 18:16 37.781037 -120.705708 138 22760ft 278kts
23-Jun-18 18:17 37.730628 -120.654880 138 22762ft 277kts
23-Jun-18 18:18 37.670230 -120.594178 138 22767ft 280kts
23-Jun-18 18:19 37.609102 -120.532787 138 22768ft 283kts
23-Jun-18 18:20 37.547209 -120.470712 138 22771ft 284kts
23-Jun-18 18:21 37.485257 -120.408774 138 22769ft 285kts
23-Jun-18 18:22 37.424017 -120.347691 139 22766ft 286kts
23-Jun-18 18:23 37.362417 -120.286324 139 22764ft 286kts
23-Jun-18 18:24 37.300003 -120.224087 139 22763ft 286kts
23-Jun-18 18:25 37.237716 -120.162402 139 22767ft 286kts
23-Jun-18 18:26 37.175477 -120.100843 139 22771ft 286kts
23-Jun-18 18:27 37.112971 -120.039155 139 22773ft 286kts
23-Jun-18 18:28 37.050629 -119.978028 139 22773ft 284kts
23-Jun-18 18:29 36.988774 -119.917316 139 22772ft 281kts
23-Jun-18 18:30 36.927571 -119.857273 139 22771ft 278kts
23-Jun-18 18:31 36.865701 -119.805384 156 22774ft 279kts
23-Jun-18 18:32 36.795671 -119.768687 155 22770ft 274kts
23-Jun-18 18:33 36.725225 -119.732023 155 22767ft 277kts
23-Jun-18 18:34 36.654194 -119.695058 155 22764ft 278kts
23-Jun-18 18:35 36.582681 -119.657976 155 22766ft 278kts
23-Jun-18 18:36 36.511336 -119.621005 155 22769ft 278kts
23-Jun-18 18:37 36.440017 -119.584140 155 22770ft 278kts
23-Jun-18 18:38 36.368571 -119.547280 155 22771ft 278kts
23-Jun-18 18:39 36.295359 -119.509671 155 22773ft 292kts
23-Jun-18 18:40 36.219682 -119.470788 155 22773ft 299kts
23-Jun-18 18:41 36.142457 -119.431181 155 22772ft 299kts
23-Jun-18 18:42 36.067789 -119.392860 155 22767ft 285kts
23-Jun-18 18:43 35.995238 -119.355756 155 22765ft 280kts
23-Jun-18 18:44 35.925063 -119.319879 155 22764ft 279kts
23-Jun-18 18:45 35.863819 -119.288586 155 22761ft 278kts
23-Jun-18 18:46 35.793474 -119.252803 155 22761ft 277kts
23-Jun-18 18:47 35.722249 -119.217036 155 22761ft 277kts
23-Jun-18 18:48 35.651292 -119.181218 155 22762ft 277kts
23-Jun-18 18:49 35.579916 -119.145161 155 22764ft 277kts
23-Jun-18 18:50 35.508651 -119.109268 155 22768ft 277kts
23-Jun-18 18:51 35.439936 -119.067863 149 22770ft 276kts
23-Jun-18 18:52 35.372339 -119.023578 149 22771ft 276kts
23-Jun-18 18:53 35.304457 -118.979189 149 22771ft 277kts
23-Jun-18 18:54 35.236589 -118.934902 149 22772ft 277kts
23-Jun-18 18:55 35.168585 -118.890612 149 22791ft 277kts
23-Jun-18 18:56 35.107788 -118.850979 149 22644ft 265kts
23-Jun-18 18:57 35.044218 -118.809936 149 21652ft 280kts
23-Jun-18 18:58 34.974682 -118.764899 150 20649ft 286kts
23-Jun-18 18:59 34.904544 -118.719530 152 19703ft 287kts
23-Jun-18 19:00 34.836884 -118.675924 153 18807ft 283kts
23-Jun-18 19:01 34.767894 -118.631499 152 17891ft 279kts
23-Jun-18 19:02 34.700085 -118.587658 152 16996ft 276kts
23-Jun-18 19:03 34.632274 -118.546439 155 15687ft 284kts
23-Jun-18 19:04 34.561100 -118.505081 155 14000ft 283kts
23-Jun-18 19:05 34.492161 -118.464988 155 13029ft 258kts
23-Jun-18 19:06 34.430073 -118.428735 155 13035ft 245kts
23-Jun-18 19:07 34.369035 -118.393213 155 13041ft 242kts
23-Jun-18 19:08 34.309323 -118.358491 155 13028ft 242kts
23-Jun-18 19:09 34.251057 -118.324648 155 13013ft 241kts
23-Jun-18 19:10 34.190537 -118.289536 155 12986ft 242kts
23-Jun-18 19:11 34.129198 -118.254005 155 11879ft 253kts
23-Jun-18 19:12 34.067025 -118.218066 156 10805ft 252kts
23-Jun-18 19:13 34.004746 -118.182081 156 9738ft 248kts
23-Jun-18 19:14 33.943723 -118.146864 156 8996ft 230kts
23-Jun-18 19:15 33.886483 -118.140272 182 9009ft 206kts
23-Jun-18 19:16 33.828239 -118.141296 182 8376ft 223kts
23-Jun-18 19:17 33.764850 -118.143004 182 7315ft 229kts
23-Jun-18 19:18 33.704217 -118.144920 182 7013ft 205kts
23-Jun-18 19:19 33.693347 -118.095450 53 6231ft 225kts
23-Jun-18 19:20 33.731961 -118.036784 51 5253ft 222kts
23-Jun-18 19:21 33.768384 -117.982478 51 5015ft 194kts
23-Jun-18 19:22 33.802090 -117.932192 51 5023ft 195kts
23-Jun-18 19:23 33.836205 -117.881270 51 5023ft 196kts
23-Jun-18 19:24 33.870411 -117.830338 51 4700ft 196kts
23-Jun-18 19:25 33.904952 -117.777749 65 4003ft 199kts
23-Jun-18 19:26 33.876671 -117.749183 180 4009ft 150kts
23-Jun-18 19:27 33.838994 -117.765621 207 3798ft 154kts
23-Jun-18 19:28 33.798893 -117.790683 208 2783ft 177kts
23-Jun-18 19:29 33.758141 -117.816613 207 1776ft 145kts
23-Jun-18 19:30 33.726069 -117.836929 205 966ft 119kts
23-Jun-18 19:31 33.696477 -117.855615 206 388ft 108kts
23-Jun-18 19:32 33.673333 -117.870337 206 59ft 38kts
23-Jun-18 19:33 33.672388 -117.872128 320 59ft 4kts
23-Jun-18 19:34 33.672445 -117.872195 305 59ft 3kts
23-Jun-18 19:35 33.671791 -117.873769 300 59ft 0kts

Navigation Log

Ident Type
Flight plan parsing failed, navigation log unavailable